N6706V 07FA-KFLL
Flight info
| Callsign | N6706V |
|---|---|
| Flight time | N/A |
| Altitude | 4000 |
| Route | VKZ |
| Aircraft | BL17/L-VG/S |
Departure
| Time | 2026-04-28 20:20 |
|---|---|
| Airport | Ocean Reef Club Airport (07FA) |
Arrival
| Time | N/A |
|---|---|
| Airport | Fort Lauderdale Hollywood International Airport (KFLL) |
| Time | Latitude | Longitude | Altitude | Speed | Heading |
|---|---|---|---|---|---|
| 2026-04-28 20:05 | 25.32237 | -80.27701 | 16 ft | 0 kts | 118° |
| 2026-04-28 20:12 | 25.32250 | -80.27690 | 12 ft | 0 kts | 345° |
| 2026-04-28 20:12 | 25.32249 | -80.27698 | 12 ft | 3 kts | 212° |
| 2026-04-28 20:12 | 25.32230 | -80.27716 | 12 ft | 6 kts | 222° |
| 2026-04-28 20:13 | 25.32169 | -80.27772 | 14 ft | 10 kts | 223° |
| 2026-04-28 20:13 | 25.32081 | -80.27853 | 14 ft | 19 kts | 219° |
| 2026-04-28 20:13 | 25.32001 | -80.27905 | 15 ft | 12 kts | 197° |
| 2026-04-28 20:13 | 25.31985 | -80.27916 | 15 ft | 0 kts | 217° |
| 2026-04-28 20:19 | 25.32006 | -80.27931 | 15 ft | 13 kts | 48° |
| 2026-04-28 20:19 | 25.32060 | -80.27895 | 13 ft | 26 kts | 35° |
| 2026-04-28 20:19 | 25.32374 | -80.27656 | 98 ft | 71 kts | 40° |
| 2026-04-28 20:20 | 25.32798 | -80.27217 | 249 ft | 101 kts | 62° |
| 2026-04-28 20:20 | 25.32993 | -80.26397 | 421 ft | 122 kts | 76° |
| 2026-04-28 20:20 | 25.33112 | -80.25463 | 752 ft | 116 kts | 82° |
| 2026-04-28 20:20 | 25.33127 | -80.24692 | 1326 ft | 97 kts | 85° |
| 2026-04-28 20:21 | 25.33163 | -80.23909 | 1677 ft | 103 kts | 83° |
| 2026-04-28 20:21 | 25.33213 | -80.23104 | 2109 ft | 107 kts | 82° |
| 2026-04-28 20:21 | 25.33283 | -80.22292 | 2584 ft | 107 kts | 78° |
| 2026-04-28 20:21 | 25.33377 | -80.21478 | 3027 ft | 104 kts | 79° |
| 2026-04-28 20:22 | 25.33464 | -80.20607 | 3170 ft | 121 kts | 79° |
| 2026-04-28 20:22 | 25.33572 | -80.19642 | 3153 ft | 130 kts | 78° |
| 2026-04-28 20:22 | 25.33700 | -80.18644 | 3157 ft | 131 kts | 68° |
| 2026-04-28 20:22 | 25.34346 | -80.18168 | 3153 ft | 118 kts | 352° |
| 2026-04-28 20:23 | 25.35038 | -80.18690 | 3160 ft | 126 kts | 319° |
| 2026-04-28 20:23 | 25.35661 | -80.19411 | 3168 ft | 133 kts | 315° |
| 2026-04-28 20:23 | 25.36082 | -80.19910 | 3159 ft | 135 kts | 315° |
| 2026-04-28 20:23 | 25.36702 | -80.20701 | 3156 ft | 136 kts | 314° |
| 2026-04-28 20:24 | 25.37508 | -80.21783 | 3153 ft | 136 kts | 313° |
| 2026-04-28 20:24 | 25.38109 | -80.22590 | 3153 ft | 136 kts | 315° |
| 2026-04-28 20:24 | 25.38705 | -80.23417 | 3097 ft | 143 kts | 312° |
| 2026-04-28 20:24 | 25.39324 | -80.24320 | 3066 ft | 148 kts | 311° |
| 2026-04-28 20:25 | 25.39957 | -80.25215 | 3069 ft | 148 kts | 313° |
| 2026-04-28 20:25 | 25.40609 | -80.26066 | 3058 ft | 146 kts | 314° |
| 2026-04-28 20:25 | 25.41265 | -80.26923 | 3057 ft | 146 kts | 313° |
| 2026-04-28 20:25 | 25.41926 | -80.27771 | 3053 ft | 145 kts | 314° |
| 2026-04-28 20:26 | 25.42586 | -80.28610 | 3053 ft | 144 kts | 315° |
| 2026-04-28 20:26 | 25.43011 | -80.29168 | 3053 ft | 143 kts | 315° |
| 2026-04-28 20:26 | 25.43645 | -80.30010 | 3053 ft | 142 kts | 315° |
| 2026-04-28 20:26 | 25.44485 | -80.31138 | 3055 ft | 142 kts | 314° |
| 2026-04-28 20:27 | 25.44894 | -80.31700 | 3055 ft | 141 kts | 314° |
| 2026-04-28 20:27 | 25.45719 | -80.32830 | 3053 ft | 141 kts | 313° |
| 2026-04-28 20:27 | 25.46345 | -80.33664 | 3064 ft | 141 kts | 314° |
| 2026-04-28 20:27 | 25.46759 | -80.34218 | 3057 ft | 140 kts | 313° |
| 2026-04-28 20:28 | 25.47604 | -80.35313 | 3084 ft | 143 kts | 314° |
| 2026-04-28 20:28 | 25.48048 | -80.35875 | 3093 ft | 144 kts | 314° |
| 2026-04-28 20:28 | 25.48913 | -80.36984 | 3077 ft | 143 kts | 315° |
| 2026-04-28 20:28 | 25.49567 | -80.37822 | 3065 ft | 144 kts | 315° |
| 2026-04-28 20:29 | 25.50004 | -80.38393 | 3070 ft | 144 kts | 315° |
| 2026-04-28 20:29 | 25.50844 | -80.39537 | 3083 ft | 145 kts | 315° |
| 2026-04-28 20:29 | 25.51271 | -80.40112 | 3082 ft | 147 kts | 313° |
| 2026-04-28 20:29 | 25.51925 | -80.40977 | 3060 ft | 146 kts | 315° |
| 2026-04-28 20:30 | 25.52575 | -80.41846 | 3056 ft | 147 kts | 315° |
| 2026-04-28 20:30 | 25.53231 | -80.42707 | 3044 ft | 146 kts | 314° |
| 2026-04-28 20:30 | 25.53881 | -80.43552 | 3043 ft | 143 kts | 315° |
| 2026-04-28 20:30 | 25.54513 | -80.44387 | 3048 ft | 140 kts | 316° |
| 2026-04-28 20:31 | 25.55125 | -80.45222 | 3054 ft | 139 kts | 314° |
| 2026-04-28 20:31 | 25.55328 | -80.45485 | 3065 ft | 139 kts | 313° |
| 2026-04-28 20:32 | 25.58337 | -80.49390 | 3082 ft | 145 kts | 314° |
| 2026-04-28 20:32 | 25.58989 | -80.50237 | 3080 ft | 145 kts | 314° |
| 2026-04-28 20:32 | 25.59668 | -80.51080 | 3080 ft | 148 kts | 315° |
| 2026-04-28 20:33 | 25.60348 | -80.51936 | 3096 ft | 149 kts | 316° |
| 2026-04-28 20:33 | 25.61030 | -80.52803 | 3099 ft | 150 kts | 315° |
| 2026-04-28 20:33 | 25.61722 | -80.53673 | 3071 ft | 150 kts | 316° |
| 2026-04-28 20:33 | 25.62406 | -80.54542 | 3055 ft | 149 kts | 314° |
| 2026-04-28 20:34 | 25.63084 | -80.55401 | 3056 ft | 148 kts | 313° |
| 2026-04-28 20:34 | 25.63753 | -80.56243 | 3045 ft | 144 kts | 315° |
| 2026-04-28 20:34 | 25.64406 | -80.57085 | 3067 ft | 145 kts | 314° |
| 2026-04-28 20:34 | 25.65063 | -80.57904 | 3048 ft | 143 kts | 314° |
| 2026-04-28 20:35 | 25.65729 | -80.58722 | 3070 ft | 144 kts | 315° |
| 2026-04-28 20:35 | 25.66406 | -80.59560 | 3066 ft | 148 kts | 314° |
| 2026-04-28 20:35 | 25.67097 | -80.60404 | 3054 ft | 148 kts | 315° |
| 2026-04-28 20:35 | 25.67783 | -80.61253 | 3050 ft | 148 kts | 315° |
| 2026-04-28 20:36 | 25.68467 | -80.62096 | 3038 ft | 146 kts | 315° |
| 2026-04-28 20:36 | 25.69134 | -80.62924 | 3025 ft | 142 kts | 315° |
| 2026-04-28 20:36 | 25.69784 | -80.63728 | 3040 ft | 139 kts | 315° |
| 2026-04-28 20:36 | 25.70431 | -80.64519 | 3049 ft | 138 kts | 315° |
| 2026-04-28 20:37 | 25.71085 | -80.65307 | 3046 ft | 139 kts | 315° |
| 2026-04-28 20:37 | 25.71786 | -80.66157 | 3059 ft | 164 kts | 316° |
| 2026-04-28 20:37 | 25.72602 | -80.67155 | 3064 ft | 184 kts | 314° |
| 2026-04-28 20:37 | 25.73485 | -80.68219 | 3056 ft | 195 kts | 315° |
| 2026-04-28 20:38 | 25.74420 | -80.69348 | 3043 ft | 200 kts | 318° |
| 2026-04-28 20:38 | 25.75642 | -80.69957 | 3045 ft | 196 kts | 352° |
| 2026-04-28 20:38 | 25.77002 | -80.70103 | 3059 ft | 198 kts | 359° |
| 2026-04-28 20:38 | 25.78388 | -80.70155 | 3047 ft | 200 kts | 0° |
| 2026-04-28 20:39 | 25.79780 | -80.70175 | 3052 ft | 201 kts | 1° |
| 2026-04-28 20:39 | 25.81179 | -80.70182 | 3043 ft | 201 kts | 1° |
| 2026-04-28 20:39 | 25.82576 | -80.70188 | 3043 ft | 201 kts | 1° |
| 2026-04-28 20:39 | 25.83975 | -80.70194 | 3057 ft | 201 kts | 1° |
| 2026-04-28 20:40 | 25.85376 | -80.70193 | 3043 ft | 201 kts | 1° |
| 2026-04-28 20:40 | 25.86774 | -80.70188 | 3040 ft | 201 kts | 1° |
| 2026-04-28 20:40 | 25.88150 | -80.70188 | 3049 ft | 200 kts | 2° |
| 2026-04-28 20:40 | 25.89544 | -80.70191 | 3049 ft | 201 kts | 2° |
| 2026-04-28 20:41 | 25.90945 | -80.70189 | 3062 ft | 202 kts | 2° |
| 2026-04-28 20:41 | 25.92327 | -80.70016 | 3047 ft | 199 kts | 25° |
| 2026-04-28 20:41 | 25.93316 | -80.68968 | 3054 ft | 200 kts | 55° |
| 2026-04-28 20:41 | 25.94039 | -80.67645 | 3049 ft | 201 kts | 60° |
| 2026-04-28 20:42 | 25.94698 | -80.66271 | 3077 ft | 206 kts | 62° |
| 2026-04-28 20:42 | 25.95359 | -80.64821 | 3009 ft | 214 kts | 62° |
| 2026-04-28 20:42 | 25.96061 | -80.63348 | 2982 ft | 217 kts | 60° |
| 2026-04-28 20:42 | 25.96825 | -80.61894 | 2969 ft | 218 kts | 55° |
| 2026-04-28 20:43 | 25.97745 | -80.60553 | 2954 ft | 218 kts | 49° |
| 2026-04-28 20:43 | 25.98728 | -80.59264 | 2959 ft | 219 kts | 48° |
| 2026-04-28 20:43 | 25.99718 | -80.58011 | 2956 ft | 219 kts | 47° |
| 2026-04-28 20:43 | 26.00763 | -80.56786 | 2955 ft | 218 kts | 44° |
| 2026-04-28 20:44 | 26.01835 | -80.55594 | 2958 ft | 218 kts | 43° |
| 2026-04-28 20:44 | 26.02918 | -80.54413 | 2957 ft | 218 kts | 43° |
| 2026-04-28 20:44 | 26.04004 | -80.53238 | 2957 ft | 218 kts | 43° |
| 2026-04-28 20:44 | 26.05093 | -80.52067 | 2956 ft | 218 kts | 42° |
| 2026-04-28 20:45 | 26.06181 | -80.50896 | 2952 ft | 218 kts | 44° |
| 2026-04-28 20:45 | 26.06822 | -80.49411 | 2951 ft | 217 kts | 82° |
| 2026-04-28 20:45 | 26.06909 | -80.47754 | 2964 ft | 201 kts | 88° |
| 2026-04-28 20:45 | 26.06934 | -80.46351 | 2797 ft | 169 kts | 90° |
| 2026-04-28 20:46 | 26.06937 | -80.45146 | 2590 ft | 143 kts | 89° |
| 2026-04-28 20:46 | 26.06934 | -80.43994 | 2005 ft | 136 kts | 90° |
| 2026-04-28 20:46 | 26.06952 | -80.43214 | 2167 ft | 90 kts | 85° |
| 2026-04-28 20:46 | 26.07144 | -80.42406 | 1600 ft | 109 kts | 66° |
| 2026-04-28 20:47 | 26.07288 | -80.41747 | 1293 ft | 97 kts | 51° |
| 2026-04-28 20:47 | 26.07691 | -80.41324 | 1185 ft | 49 kts | 33° |